Time;durP1;ratioP1;P1;durP2;ratioP2;P2;SDS_P1;SDS_P2;PMS_P1;PMS_P2;Temp;Humidity;BMP_temperature;BMP_pressure;BME280_temperature;BME280_humidity;BME280_pressure;Samples;Min_cycle;Max_cycle;Signal;HPM_P1;HPM_P2
2023/04/11 04:30:29;;;;;;;;;1.00;1.00;;;;;10.85;68.79;101358.38;5080089;27;46850;-75
2023/04/11 04:32:57;;;;;;;;;1.25;0.25;;;;;10.73;68.26;101329.31;5055808;28;45435;-76
2023/04/11 04:35:23;;;;;;;;;3.00;1.25;;;;;10.89;68.12;101341.22;5056664;28;45347;-76
2023/04/11 04:37:49;;;;;;;;;1.50;1.00;;;;;11.01;67.85;101353.28;5056145;28;45375;-75
2023/04/11 04:40:19;;;;;;;;;1.50;0.00;;;;;10.92;67.95;101342.91;5045106;28;47540;-73
2023/04/11 04:42:44;;;;;;;;;2.75;1.00;;;;;10.87;68.98;101351.16;5058597;28;45295;-75
2023/04/11 04:45:10;;;;;;;;;1.50;0.75;;;;;10.86;68.77;101349.41;5069545;28;45471;-73
2023/04/11 04:47:36;;;;;;;;;1.75;1.00;;;;;10.70;68.42;101316.03;5056295;28;45306;-75
2023/04/11 04:50:02;;;;;;;;;4.00;0.75;;;;;10.83;68.43;101346.81;5046018;28;47144;-74
2023/04/11 04:52:28;;;;;;;;;2.75;1.00;;;;;10.81;68.60;101355.84;5065932;27;45375;-75
2023/04/11 04:54:58;;;;;;;;;0.50;0.50;;;;;10.78;68.79;101354.16;5056572;28;45450;-75
2023/04/11 04:57:24;;;;;;;;;3.50;1.00;;;;;10.77;68.63;101363.13;5056201;28;45302;-75
2023/04/11 04:59:50;;;;;;;;;1.50;1.50;;;;;10.75;69.09;101367.69;5064325;28;47327;-74
2023/04/11 05:02:16;;;;;;;;;0.00;0.00;;;;;10.77;69.00;101352.41;5076460;28;45315;-75
2023/04/11 05:04:43;;;;;;;;;2.25;1.00;;;;;10.60;69.31;101331.59;5050376;28;45514;-75
2023/04/11 05:07:09;;;;;;;;;1.00;1.00;;;;;10.73;68.90;101349.88;5075047;28;45446;-75
2023/04/11 05:09:35;;;;;;;;;1.50;1.00;;;;;10.79;69.13;101365.78;5064547;28;46327;-76
2023/04/11 05:12:01;;;;;;;;;1.00;1.00;;;;;10.72;69.17;101364.25;5056002;28;45397;-74
2023/04/11 05:14:26;;;;;;;;;1.25;1.00;;;;;10.76;69.35;101368.56;5057521;28;45382;-70
2023/04/11 05:16:52;;;;;;;;;0.75;0.75;;;;;10.63;69.02;101358.25;5055342;28;55498;-71
2023/04/11 05:19:17;;;;;;;;;2.25;0.00;;;;;10.66;69.18;101365.31;5055820;28;46026;-74
2023/04/11 05:21:43;;;;;;;;;2.00;0.75;;;;;10.73;69.29;101380.25;5035170;28;45393;-73
2023/04/11 05:24:08;;;;;;;;;0.00;0.00;;;;;10.59;69.93;101371.84;5076353;28;45613;-71
2023/04/11 05:26:33;;;;;;;;;0.00;0.00;;;;;10.60;69.86;101381.66;5075997;28;49989;-73
2023/04/11 05:28:59;;;;;;;;;2.00;0.75;;;;;10.63;70.00;101385.06;5076022;28;45311;-73
2023/04/11 05:31:25;;;;;;;;;3.50;1.00;;;;;10.65;70.00;101387.72;5068514;28;45410;-74
2023/04/11 05:33:51;;;;;;;;;2.00;0.25;;;;;10.60;69.93;101378.97;5076203;27;45989;-74
2023/04/11 05:36:16;;;;;;;;;1.00;1.00;;;;;10.29;70.50;101349.69;5072962;27;45549;-79
2023/04/11 05:38:43;;;;;;;;;2.00;2.00;;;;;10.51;71.01;101385.53;5096951;27;46532;-77
2023/04/11 05:41:09;;;;;;;;;1.00;1.00;;;;;10.56;70.64;101391.59;5097179;27;45529;-73
2023/04/11 05:43:35;;;;;;;;;0.00;0.00;;;;;10.51;70.46;101390.91;5097099;27;45395;-75
2023/04/11 05:46:01;;;;;;;;;5.00;1.25;;;;;10.41;70.56;101378.75;5096846;27;45343;-76
2023/04/11 05:48:26;;;;;;;;;0.50;0.00;;;;;10.46;70.85;101390.16;5095667;27;45335;-75
2023/04/11 05:50:52;;;;;;;;;5.00;3.00;;;;;10.43;71.08;101400.13;5093808;27;45317;-75
2023/04/11 05:53:17;;;;;;;;;1.00;1.00;;;;;10.43;70.76;101384.06;5065883;27;45319;-75
2023/04/11 05:55:42;;;;;;;;;2.25;0.75;;;;;10.54;70.51;101369.34;5096064;27;45425;-74
2023/04/11 05:58:09;;;;;;;;;2.25;1.00;;;;;10.53;70.13;101377.44;5096142;27;45274;-76
2023/04/11 06:00:37;;;;;;;;;1.00;1.00;;;;;10.61;70.14;101397.69;5095670;27;45357;-75
2023/04/11 06:03:03;;;;;;;;;1.00;1.00;;;;;10.66;70.58;101402.88;5096317;27;45383;-77
2023/04/11 06:05:30;;;;;;;;;1.00;1.00;;;;;10.66;70.13;101391.28;5095981;27;45452;-77
2023/04/11 06:08:00;;;;;;;;;1.00;1.00;;;;;10.84;69.91;101406.69;5095517;27;45337;-78
2023/04/11 06:10:26;;;;;;;;;3.25;2.50;;;;;10.76;69.88;101401.63;5078007;27;45445;-76
2023/04/11 06:12:51;;;;;;;;;3.25;1.00;;;;;10.70;69.90;101417.94;5096767;27;45235;-76
2023/04/11 06:15:17;;;;;;;;;1.50;1.00;;;;;10.61;69.99;101403.06;5096403;27;45313;-78
2023/04/11 06:17:43;;;;;;;;;1.75;1.75;;;;;10.56;69.79;101413.03;5096423;27;45350;-76
2023/04/11 06:20:09;;;;;;;;;1.00;1.00;;;;;10.61;70.32;101426.31;5096589;27;45432;-77
2023/04/11 06:22:35;;;;;;;;;1.00;1.00;;;;;10.44;70.16;101389.38;5078822;27;45379;-76
2023/04/11 06:25:00;;;;;;;;;3.00;0.25;;;;;10.66;70.13;101421.63;5097045;27;45449;-76
2023/04/11 06:27:25;;;;;;;;;5.75;1.25;;;;;10.69;69.82;101420.66;5099042;27;54666;-76
2023/04/11 06:29:51;;;;;;;;;1.00;1.00;;;;;10.71;69.97;101422.38;5094108;27;46192;-76
2023/04/11 06:32:16;;;;;;;;;1.25;1.25;;;;;10.70;69.74;101403.66;5074623;28;45386;-76
2023/04/11 06:34:41;;;;;;;;;3.00;2.00;;;;;10.84;69.68;101407.56;5074451;28;45236;-76
2023/04/11 06:37:07;;;;;;;;;4.25;0.75;;;;;10.98;69.00;101417.78;5074858;28;46049;-78
2023/04/11 06:39:33;;;;;;;;;1.50;1.50;;;;;10.87;68.92;101414.66;5074933;27;45375;-77
2023/04/11 06:41:59;;;;;;;;;2.75;1.00;;;;;10.92;68.48;101426.06;5074794;28;45379;-77
2023/04/11 06:44:25;;;;;;;;;1.50;1.50;;;;;10.75;69.05;101401.66;5074779;28;45302;-77
2023/04/11 06:46:50;;;;;;;;;4.00;1.00;;;;;10.88;69.11;101433.38;5074696;28;46210;-76
2023/04/11 06:49:17;;;;;;;;;1.75;1.75;;;;;10.89;69.08;101423.50;5074712;28;45433;-76
2023/04/11 06:51:45;;;;;;;;;1.00;0.25;;;;;11.01;68.47;101441.84;5088202;27;46123;-77
2023/04/11 06:54:11;;;;;;;;;2.00;1.00;;;;;11.02;68.55;101440.91;5076666;27;46350;-77
2023/04/11 06:56:36;;;;;;;;;3.00;1.25;;;;;10.99;68.61;101430.28;5095129;27;45372;-76
2023/04/11 06:59:01;;;;;;;;;2.00;1.75;;;;;11.05;68.60;101443.50;5076775;27;45442;-77
2023/04/11 07:01:34;;;;;;;;;2.50;1.00;;;;;10.92;68.76;101437.69;5095431;27;45359;-76
2023/04/11 07:03:59;;;;;;;;;1.50;1.50;;;;;10.85;69.23;101444.19;5095200;27;45343;-76
2023/04/11 07:06:25;;;;;;;;;3.25;2.00;;;;;11.03;68.82;101452.53;5076734;27;48149;-77
2023/04/11 07:08:51;;;;;;;;;2.25;1.50;;;;;10.91;68.70;101453.81;5095384;27;45298;-76
2023/04/11 07:11:16;;;;;;;;;4.00;1.00;;;;;10.93;68.71;101446.59;5095072;27;45320;-77
2023/04/11 07:13:42;;;;;;;;;3.00;1.00;;;;;10.94;68.84;101449.25;5095097;27;45350;-76
2023/04/11 07:16:07;;;;;;;;;1.75;1.00;;;;;11.05;68.33;101466.75;5095075;27;46068;-80
2023/04/11 07:18:33;;;;;;;;;2.50;1.50;;;;;11.10;68.85;101462.97;5095250;27;45272;-77
2023/04/11 07:20:58;;;;;;;;;2.75;1.50;;;;;11.09;68.47;101453.16;5094941;27;45347;-77
2023/04/11 07:23:23;;;;;;;;;7.50;1.00;;;;;11.26;68.39;101468.63;5076281;27;47164;-76
2023/04/11 07:25:49;;;;;;;;;2.75;1.00;;;;;11.37;67.59;101477.19;5094655;27;45267;-77
2023/04/11 07:28:15;;;;;;;;;1.00;1.00;;;;;11.24;67.94;101455.28;5094872;27;52006;-76
2023/04/11 07:30:41;;;;;;;;;1.25;1.25;;;;;11.20;67.45;101444.72;5085782;27;45342;-77
2023/04/11 07:33:06;;;;;;;;;4.50;2.00;;;;;10.98;67.77;101407.06;5074964;28;45333;-76
2023/04/11 07:35:33;;;;;;;;;4.00;1.75;;;;;11.23;67.89;101444.59;5074954;28;45961;-77
2023/04/11 07:38:00;;;;;;;;;1.25;1.25;;;;;11.17;67.89;101440.34;5074946;28;45587;-77
2023/04/11 07:40:26;;;;;;;;;2.00;2.00;;;;;11.24;67.83;101443.66;5066065;27;45500;-76
2023/04/11 07:42:51;;;;;;;;;3.50;2.00;;;;;11.28;67.92;101453.38;5096628;27;45309;-76
2023/04/11 07:45:16;;;;;;;;;3.00;0.00;;;;;11.34;67.54;101437.91;5080095;27;46963;-76
2023/04/11 07:47:42;;;;;;;;;2.00;2.00;;;;;11.37;66.91;101436.91;5098560;27;45269;-76
2023/04/11 07:50:07;;;;;;;;;1.00;1.00;;;;;11.55;66.86;101451.44;5098166;27;45597;-78
2023/04/11 07:52:32;;;;;;;;;2.00;1.00;;;;;11.58;67.29;101449.50;5081609;27;45462;-77
2023/04/11 07:54:58;;;;;;;;;2.75;1.00;;;;;11.74;67.44;101450.69;5077312;27;45409;-76
2023/04/11 07:57:23;;;;;;;;;1.50;1.50;;;;;11.93;65.89;101447.25;5079606;27;45355;-78
2023/04/11 07:59:49;;;;;;;;;3.00;1.00;;;;;11.80;65.66;101429.91;5098429;27;45310;-77
2023/04/11 08:02:14;;;;;;;;;3.00;2.00;;;;;11.86;65.75;101437.69;5097996;27;45364;-76
2023/04/11 08:04:39;;;;;;;;;2.00;1.00;;;;;11.79;65.66;101423.66;5097725;27;52284;-77
2023/04/11 08:07:05;;;;;;;;;4.25;1.75;;;;;11.95;64.63;101431.97;5097443;27;45168;-77
2023/04/11 08:09:31;;;;;;;;;2.00;1.00;;;;;11.92;64.88;101441.00;5098295;27;45408;-77
2023/04/11 08:11:57;;;;;;;;;2.00;1.00;;;;;12.13;64.66;101447.34;5097636;27;45380;-76
2023/04/11 08:14:22;;;;;;;;;2.00;2.00;;;;;12.08;64.66;101460.94;5097897;27;45372;-77
2023/04/11 08:16:49;;;;;;;;;3.00;2.00;;;;;12.17;64.23;101469.56;5079228;27;45764;-76
2023/04/11 08:19:14;;;;;;;;;0.00;0.00;;;;;12.09;64.54;101462.69;5097919;27;45313;-77
2023/04/11 08:21:40;;;;;;;;;2.00;2.00;;;;;12.19;64.70;101476.66;5097539;27;45496;-78
2023/04/11 08:24:06;;;;;;;;;4.25;2.00;;;;;12.19;64.91;101465.00;5097601;27;45822;-77
2023/04/11 08:26:31;;;;;;;;;3.50;1.00;;;;;12.16;64.27;101457.09;5098156;27;45491;-77
2023/04/11 08:28:57;;;;;;;;;3.00;1.25;;;;;12.19;63.95;101438.13;5076727;28;45461;-77
2023/04/11 08:31:22;;;;;;;;;3.00;2.00;;;;;12.19;63.52;101425.56;5075166;27;46238;-76
2023/04/11 08:33:47;;;;;;;;;3.50;3.50;;;;;11.94;62.66;101365.72;5097991;27;46086;-77
2023/04/11 08:36:13;;;;;;;;;2.50;2.00;;;;;12.33;62.92;101439.34;5097847;27;45341;-77
2023/04/11 08:38:39;;;;;;;;;4.00;1.50;;;;;12.51;63.19;101465.41;5098525;27;45383;-76
2023/04/11 08:41:05;;;;;;;;;6.00;3.00;;;;;12.53;62.80;101446.53;5097284;27;45274;-76
2023/04/11 08:43:35;;;;;;;;;2.00;1.50;;;;;12.61;61.80;101443.50;5079126;27;48034;-78
2023/04/11 08:46:02;;;;;;;;;5.50;2.25;;;;;12.77;61.57;101458.91;5097245;27;45507;-77
2023/04/11 08:48:28;;;;;;;;;3.00;1.00;;;;;12.76;61.03;101442.88;5079184;27;45381;-77
2023/04/11 08:50:54;;;;;;;;;2.75;2.25;;;;;12.78;61.31;101443.66;5095483;27;45295;-78
2023/04/11 08:53:23;;;;;;;;;3.00;2.75;;;;;12.76;60.72;101443.72;5077724;28;45966;-77
2023/04/11 08:55:49;;;;;;;;;2.25;2.00;;;;;12.98;60.99;101467.88;5076743;28;45412;-77
2023/04/11 08:58:15;;;;;;;;;4.00;1.00;;;;;12.98;60.63;101467.88;5079393;28;45420;-76
2023/04/11 09:00:42;;;;;;;;;3.25;2.00;;;;;12.94;60.71;101478.84;5079042;28;45346;-76
2023/04/11 09:03:09;;;;;;;;;3.00;1.00;;;;;12.84;60.28;101457.72;5077558;28;45471;-79
2023/04/11 09:05:39;;;;;;;;;1.00;1.00;;;;;12.71;59.81;101459.19;5079039;27;45329;-77
2023/04/11 09:08:10;;;;;;;;;1.50;1.00;;;;;12.63;59.82;101433.56;5078582;27;45324;-77
2023/04/11 09:10:39;;;;;;;;;2.00;1.00;;;;;12.88;59.56;101453.94;5096997;27;45571;-75
2023/04/11 09:13:25;;;;;;;;;3.00;1.50;;;;;12.96;59.47;101441.97;5079242;27;46132;-76
2023/04/11 09:16:03;;;;;;;;;5.25;3.00;;;;;13.01;59.01;101450.72;5097403;27;45448;-79
2023/04/11 09:18:35;;;;;;;;;2.00;1.00;;;;;13.06;59.10;101446.88;5097500;27;45251;-77
2023/04/11 09:21:03;;;;;;;;;1.00;1.00;;;;;12.84;58.42;101400.34;5096784;27;45480;-78
2023/04/11 09:23:29;;;;;;;;;5.50;1.75;;;;;13.19;58.13;101452.59;5096584;27;46333;-77
2023/04/11 09:25:54;;;;;;;;;3.00;2.00;;;;;13.17;57.73;101435.66;5077992;27;45216;-76
2023/04/11 09:28:20;;;;;;;;;2.00;1.75;;;;;13.27;56.67;101450.44;5096672;27;45168;-76
2023/04/11 09:30:53;;;;;;;;;5.75;3.00;;;;;12.95;56.76;101403.41;5086773;27;45265;-78
2023/04/11 09:33:27;;;;;;;;;1.00;1.00;;;;;13.23;56.79;101446.16;5057591;28;46990;-78
2023/04/11 09:35:54;;;;;;;;;1.00;1.00;;;;;13.14;57.23;101420.50;5076131;28;45420;-79
2023/04/11 09:38:33;;;;;;;;;1.25;1.00;;;;;13.38;54.90;101453.50;5076255;27;45410;-76
2023/04/11 09:41:02;;;;;;;;;0.00;0.00;;;;;13.05;54.51;101411.94;5075988;28;45321;-77
2023/04/11 09:43:54;;;;;;;;;1.75;1.25;;;;;13.35;54.57;101456.38;5076157;28;45400;-78
2023/04/11 09:46:20;;;;;;;;;3.00;2.00;;;;;13.26;55.33;101451.41;5057974;28;45379;-78
2023/04/11 09:48:47;;;;;;;;;3.75;2.25;;;;;13.27;54.90;101438.81;5076465;28;45393;-77
2023/04/11 09:51:13;;;;;;;;;2.25;1.25;;;;;13.43;55.01;101439.84;5080481;27;45508;-79
2023/04/11 09:53:40;;;;;;;;;2.00;2.00;;;;;13.46;55.11;101432.47;5086816;27;45319;-79
2023/04/11 09:56:06;;;;;;;;;5.50;2.00;;;;;13.49;55.16;101436.88;5096071;27;45468;-78
2023/04/11 09:58:35;;;;;;;;;2.25;2.25;;;;;13.51;55.03;101441.25;5096588;27;45241;-77
2023/04/11 10:01:00;;;;;;;;;1.00;1.00;;;;;13.35;54.90;101415.97;5096333;27;45437;-77
2023/04/11 10:03:26;;;;;;;;;1.25;1.25;;;;;13.60;54.11;101443.50;5096053;27;45912;-78
2023/04/11 10:05:53;;;;;;;;;2.00;1.00;;;;;13.60;54.10;101453.41;5095747;27;45353;-77
2023/04/11 10:08:32;;;;;;;;;1.00;1.00;;;;;13.53;53.59;101451.91;5096403;27;45328;-76
2023/04/11 10:10:59;;;;;;;;;1.00;1.00;;;;;13.55;54.07;101450.03;5096936;27;45326;-75
2023/04/11 10:13:43;;;;;;;;;4.00;2.00;;;;;13.57;54.76;101445.47;5097751;27;45565;-76
2023/04/11 10:16:11;;;;;;;;;0.50;0.50;;;;;13.64;54.82;101455.88;5097267;27;45368;-76
2023/04/11 10:18:57;;;;;;;;;3.25;2.00;;;;;13.61;54.94;101453.31;5078807;27;45555;-76
2023/04/11 10:21:35;;;;;;;;;1.50;1.00;;;;;13.61;54.17;101434.44;5095462;27;45424;-77
2023/04/11 10:24:14;;;;;;;;;1.00;1.00;;;;;13.71;54.94;101442.09;5095827;27;45238;-77
2023/04/11 10:26:59;;;;;;;;;1.75;1.75;;;;;13.81;54.60;101427.25;5095513;27;45430;-77
2023/04/11 10:29:39;;;;;;;;;2.00;1.00;;;;;13.89;54.81;101422.34;5095690;27;45328;-78
2023/04/11 10:32:08;;;;;;;;;3.00;3.00;;;;;13.99;54.84;101427.22;5082387;27;45389;-77
2023/04/11 10:34:37;;;;;;;;;1.00;1.00;;;;;14.07;53.76;101423.28;5095339;27;45639;-77
2023/04/11 10:37:07;;;;;;;;;2.00;0.50;;;;;14.23;53.79;101429.66;5077102;27;45441;-77
2023/04/11 10:40:10;;;;;;;;;5.50;2.50;;;;;14.28;53.35;101415.00;5076148;27;45685;-80
2023/04/11 10:42:42;;;;;;;;;3.00;1.25;;;;;14.36;53.78;101420.00;5082712;27;45446;-77
2023/04/11 10:45:25;;;;;;;;;1.00;1.00;;;;;14.26;52.45;101402.53;5095810;27;46469;-76
2023/04/11 10:47:51;;;;;;;;;2.00;1.00;;;;;14.35;52.92;101400.25;5095673;27;45339;-75
2023/04/11 10:50:22;;;;;;;;;3.00;1.00;;;;;14.56;52.79;101408.19;5095854;27;45385;-78
2023/04/11 10:52:47;;;;;;;;;2.75;2.00;;;;;14.74;52.68;101424.31;5077032;27;45543;-78
2023/04/11 10:55:17;;;;;;;;;2.75;1.75;;;;;14.84;51.70;101396.84;5075487;28;46131;-78
2023/04/11 10:58:01;;;;;;;;;3.75;2.00;;;;;14.78;50.61;101408.84;5057195;28;45318;-77
2023/04/11 11:00:27;;;;;;;;;1.00;1.00;;;;;14.58;49.81;101396.38;5075838;28;45455;-77
2023/04/11 11:02:52;;;;;;;;;1.75;0.50;;;;;14.44;50.68;101377.34;5075572;28;45496;-77
2023/04/11 11:05:19;;;;;;;;;3.75;1.00;;;;;14.75;50.35;101398.19;5075899;27;45498;-77
2023/04/11 11:07:48;;;;;;;;;4.00;2.25;;;;;14.69;49.33;101379.63;5095493;27;45236;-78
2023/04/11 11:10:13;;;;;;;;;1.00;1.00;;;;;14.84;48.88;101376.13;5095028;27;45402;-75
2023/04/11 11:12:54;;;;;;;;;1.00;1.00;;;;;14.91;48.69;101361.31;5095552;27;45314;-75
2023/04/11 11:15:20;;;;;;;;;3.25;3.25;;;;;14.95;49.55;101365.63;5095651;27;46044;-77
2023/04/11 11:17:46;;;;;;;;;2.25;1.25;;;;;14.92;48.66;101370.31;5096500;27;45212;-77
2023/04/11 11:20:15;;;;;;;;;8.50;1.75;;;;;14.94;48.19;101358.47;5099066;27;45422;-76
2023/04/11 11:22:41;;;;;;;;;2.25;2.25;;;;;14.98;48.67;101349.22;5082620;27;45421;-77
2023/04/11 11:25:10;;;;;;;;;2.75;1.00;;;;;14.88;49.03;101348.00;5080605;27;48213;-76
2023/04/11 11:27:35;;;;;;;;;3.50;2.50;;;;;15.10;48.91;101335.06;5100933;27;45458;-76
2023/04/11 11:30:10;;;;;;;;;3.00;3.00;;;;;14.96;48.89;101313.38;5097180;27;45552;-76
2023/04/11 11:32:36;;;;;;;;;2.00;2.00;;;;;15.29;48.72;101348.44;5080307;28;45449;-77
2023/04/11 11:35:13;;;;;;;;;1.25;1.25;;;;;15.28;47.83;101346.69;5077798;27;45384;-76
2023/04/11 11:37:40;;;;;;;;;2.00;1.25;;;;;15.27;46.78;101350.34;5077854;28;45503;-78
2023/04/11 11:40:11;;;;;;;;;3.00;1.75;;;;;15.36;47.87;101348.94;5077618;28;45363;-77
2023/04/11 11:42:38;;;;;;;;;2.00;2.00;;;;;15.44;48.41;101335.88;5077672;27;45434;-79
2023/04/11 11:45:14;;;;;;;;;1.25;1.25;;;;;15.47;48.90;101328.50;5077956;27;45386;-76
2023/04/11 11:47:44;;;;;;;;;2.00;1.00;;;;;15.14;48.54;101312.31;5077614;28;45264;-76
2023/04/11 11:50:10;;;;;;;;;2.00;0.00;;;;;15.10;48.48;101285.59;5078130;27;45225;-78
2023/04/11 11:52:42;;;;;;;;;1.00;1.00;;;;;15.26;47.09;101324.28;5098440;27;45547;-77
2023/04/11 11:55:29;;;;;;;;;2.50;1.00;;;;;15.19;47.53;101331.00;5097830;27;47641;-77
2023/04/11 11:58:00;;;;;;;;;1.00;1.00;;;;;15.20;47.56;101303.03;5079628;27;45392;-76
2023/04/11 12:00:27;;;;;;;;;2.75;1.00;;;;;15.47;46.69;101331.19;5098370;27;45395;-76
2023/04/11 12:02:54;;;;;;;;;0.50;0.50;;;;;15.51;46.68;101311.13;5098433;27;45672;-77
2023/04/11 12:05:23;;;;;;;;;5.00;1.25;;;;;15.52;46.35;101329.09;5097898;27;45459;-77
2023/04/11 12:07:53;;;;;;;;;4.25;1.00;;;;;15.41;46.29;101347.72;5098021;27;45617;-76
2023/04/11 12:10:20;;;;;;;;;1.75;1.75;;;;;15.48;45.83;101343.72;5098870;27;45349;-76
2023/04/11 12:12:48;;;;;;;;;1.75;1.75;;;;;15.50;44.97;101344.50;5099023;27;45450;-78
2023/04/11 12:15:16;;;;;;;;;0.50;0.00;;;;;15.57;44.97;101334.25;5098519;27;45389;-77
2023/04/11 12:17:53;;;;;;;;;2.00;0.75;;;;;15.61;45.36;101299.81;5098433;27;45353;-77
2023/04/11 12:20:26;;;;;;;;;1.00;1.00;;;;;15.63;45.09;101319.53;5097970;27;45418;-77
2023/04/11 12:22:53;;;;;;;;;1.00;1.00;;;;;15.62;45.74;101328.59;5097718;27;45454;-77
2023/04/11 12:25:18;;;;;;;;;0.75;0.75;;;;;15.49;46.20;101331.94;5097333;27;45344;-76
2023/04/11 12:27:45;;;;;;;;;2.00;1.00;;;;;15.56;45.37;101328.94;5097825;27;45243;-77
2023/04/11 12:30:15;;;;;;;;;1.00;1.00;;;;;15.55;44.73;101309.16;5073246;28;45351;-78
2023/04/11 12:32:41;;;;;;;;;2.00;0.00;;;;;15.50;44.79;101331.00;5071144;27;45614;-78
2023/04/11 12:35:06;;;;;;;;;1.00;1.00;;;;;15.59;44.84;101312.53;5097447;27;46246;-77
2023/04/11 12:37:33;;;;;;;;;3.00;1.00;;;;;15.59;43.80;101323.34;5079702;27;45433;-78
2023/04/11 12:39:59;;;;;;;;;3.00;1.50;;;;;15.36;44.61;101328.22;5098234;27;45364;-80
2023/04/11 12:42:24;;;;;;;;;1.00;1.00;;;;;15.45;44.73;101310.59;5098032;27;45547;-76
2023/04/11 12:44:50;;;;;;;;;2.50;1.00;;;;;15.78;44.12;101333.03;5078879;27;46311;-76
2023/04/11 12:47:15;;;;;;;;;5.00;2.00;;;;;15.61;43.77;101310.63;5097336;27;45420;-77
2023/04/11 12:49:41;;;;;;;;;1.75;1.00;;;;;15.74;44.14;101311.66;5098704;27;45358;-76
2023/04/11 12:52:08;;;;;;;;;1.00;1.00;;;;;15.51;44.13;101294.91;5086713;27;45289;-75
2023/04/11 12:54:33;;;;;;;;;0.50;0.50;;;;;15.60;44.08;101308.88;5076249;28;45409;-76
2023/04/11 12:56:58;;;;;;;;;2.50;1.00;;;;;15.52;44.70;101314.69;5076982;28;45566;-78
2023/04/11 12:59:27;;;;;;;;;2.00;2.00;;;;;15.46;45.09;101270.00;5076563;27;45500;-77
2023/04/11 13:01:52;;;;;;;;;2.25;1.00;;;;;15.62;44.96;101285.34;5076535;28;45311;-77
2023/04/11 13:04:18;;;;;;;;;2.00;1.00;;;;;15.59;44.56;101296.31;5076451;27;45644;-78
2023/04/11 13:06:43;;;;;;;;;3.00;1.50;;;;;15.36;44.62;101268.78;5089706;27;45366;-77
2023/04/11 13:09:13;;;;;;;;;2.25;1.00;;;;;15.46;44.92;101270.00;5097509;27;45484;-76
2023/04/11 13:11:39;;;;;;;;;1.00;1.00;;;;;15.44;45.07;101263.81;5078874;27;45260;-76
2023/04/11 13:14:04;;;;;;;;;1.00;1.00;;;;;15.52;45.10;101288.56;5096724;27;45698;-78
2023/04/11 13:16:29;;;;;;;;;1.00;1.00;;;;;15.46;44.75;101283.50;5097165;27;45425;-76
2023/04/11 13:18:55;;;;;;;;;5.25;1.50;;;;;15.21;44.81;101256.16;5096545;27;45346;-76
2023/04/11 13:21:21;;;;;;;;;3.00;2.00;;;;;15.26;45.50;101272.97;5078460;27;45960;-76
2023/04/11 13:23:46;;;;;;;;;2.00;1.00;;;;;14.81;45.78;101230.50;5098618;27;46082;-78
2023/04/11 13:26:11;;;;;;;;;0.75;0.75;;;;;14.78;46.11;101252.28;5080230;27;45560;-77
2023/04/11 13:28:39;;;;;;;;;1.00;1.00;;;;;14.96;46.62;101248.56;5078978;27;45298;-76
2023/04/11 13:31:09;;;;;;;;;2.00;1.00;;;;;15.33;46.26;101255.44;5075952;27;45326;-77
2023/04/11 13:33:34;;;;;;;;;1.00;1.00;;;;;15.63;45.60;101239.31;5096927;27;45416;-77
2023/04/11 13:36:00;;;;;;;;;1.00;1.00;;;;;15.88;45.53;101222.50;5077908;27;45449;-78
2023/04/11 13:38:26;;;;;;;;;3.00;1.75;;;;;15.80;44.54;101185.13;5076151;28;45349;-76
2023/04/11 13:40:51;;;;;;;;;1.00;1.00;;;;;16.03;44.72;101202.63;5075893;28;45545;-76
2023/04/11 13:43:16;;;;;;;;;2.00;2.00;;;;;16.24;44.20;101235.63;5075814;28;45445;-77
2023/04/11 13:45:42;;;;;;;;;0.00;0.00;;;;;16.17;44.72;101218.00;5076174;28;45310;-76
2023/04/11 13:48:07;;;;;;;;;2.75;1.00;;;;;16.00;44.44;101227.16;5076229;28;45297;-77
2023/04/11 13:50:33;;;;;;;;;1.00;1.00;;;;;15.86;44.25;101224.41;5079215;27;52646;-77
2023/04/11 13:52:58;;;;;;;;;2.00;1.00;;;;;15.67;43.81;101211.13;5077891;27;46965;-78
2023/04/11 13:55:24;;;;;;;;;3.00;3.00;;;;;15.69;44.39;101213.75;5082861;27;45380;-76
2023/04/11 13:57:49;;;;;;;;;0.25;0.25;;;;;15.63;44.36;101193.38;5075869;28;45204;-77
2023/04/11 14:00:15;;;;;;;;;2.75;2.75;;;;;15.65;44.31;101168.94;5070458;27;47181;-76
2023/04/11 14:02:41;;;;;;;;;1.50;1.50;;;;;15.87;43.65;101204.53;5096110;27;46202;-76
2023/04/11 14:05:09;;;;;;;;;2.25;1.00;;;;;15.98;43.66;101188.53;5078051;27;45329;-76
2023/04/11 14:07:34;;;;;;;;;2.50;1.00;;;;;16.27;43.27;101193.00;5096671;27;45576;-77
2023/04/11 14:09:59;;;;;;;;;1.25;1.00;;;;;16.31;42.59;101173.88;5096059;27;45398;-77
2023/04/11 14:12:25;;;;;;;;;6.00;1.25;;;;;16.45;42.58;101163.03;5095850;27;45388;-77
2023/04/11 14:14:51;;;;;;;;;1.00;0.25;;;;;16.38;41.84;101176.09;5096401;27;45377;-77
2023/04/11 14:17:16;;;;;;;;;0.25;0.25;;;;;16.22;42.24;101167.22;5096467;27;45460;-76
2023/04/11 14:19:42;;;;;;;;;2.75;1.00;;;;;16.26;42.52;101166.91;5097145;27;45316;-77
2023/04/11 14:22:07;;;;;;;;;2.00;0.50;;;;;16.41;43.07;101161.50;5095715;27;45434;-77
2023/04/11 14:24:33;;;;;;;;;0.00;0.00;;;;;16.51;42.27;101168.91;5095465;27;45296;-77
2023/04/11 14:26:58;;;;;;;;;1.00;1.00;;;;;16.30;42.79;101115.31;5095915;27;45572;-78
2023/04/11 14:29:24;;;;;;;;;1.00;1.00;;;;;16.57;42.74;101127.94;5095566;27;45372;-76
2023/04/11 14:31:50;;;;;;;;;1.00;1.00;;;;;16.79;42.64;101140.09;5076370;27;45457;-77
2023/04/11 14:34:17;;;;;;;;;2.00;1.00;;;;;16.68;42.89;101142.63;5074179;28;45384;-79
2023/04/11 14:36:43;;;;;;;;;1.00;1.00;;;;;16.51;42.50;101144.56;5077090;28;45254;-77
2023/04/11 14:39:08;;;;;;;;;1.00;1.00;;;;;16.16;42.38;101132.44;5076830;28;45218;-76
2023/04/11 14:41:34;;;;;;;;;1.00;1.00;;;;;16.19;42.79;101135.78;5091957;27;45270;-77
2023/04/11 14:43:59;;;;;;;;;1.00;1.00;;;;;16.12;42.82;101131.75;5077615;27;45316;-77
2023/04/11 14:46:26;;;;;;;;;0.25;0.00;;;;;16.08;43.14;101127.47;5094202;27;45283;-77
2023/04/11 14:48:51;;;;;;;;;1.00;1.00;;;;;15.75;43.39;101111.50;5095486;27;45325;-77
2023/04/11 14:51:16;;;;;;;;;1.00;1.00;;;;;15.50;44.10;101104.00;5089850;27;50981;-76
2023/04/11 14:53:49;;;;;;;;;1.25;0.75;;;;;15.43;44.93;101113.44;5085855;27;45310;-77
2023/04/11 14:56:14;;;;;;;;;4.00;1.00;;;;;15.47;45.10;101108.75;5077870;27;45451;-77
2023/04/11 14:58:39;;;;;;;;;4.00;2.00;;;;;15.38;45.74;101099.34;5095345;27;45338;-77
2023/04/11 15:01:05;;;;;;;;;0.75;0.75;;;;;15.36;45.92;101095.88;5094981;27;45996;-77
2023/04/11 15:03:30;;;;;;;;;0.50;0.00;;;;;15.50;46.54;101125.63;5095333;27;45417;-78
2023/04/11 15:05:55;;;;;;;;;1.00;1.00;;;;;15.31;46.71;101116.88;5094989;27;45444;-78
2023/04/11 15:08:21;;;;;;;;;5.50;1.00;;;;;15.13;46.03;101093.69;5076865;27;49127;-77
2023/04/11 15:10:52;;;;;;;;;0.75;0.75;;;;;15.09;47.21;101102.91;5094765;27;46205;-77
2023/04/11 15:13:17;;;;;;;;;0.25;0.25;;;;;14.95;47.55;101092.94;5095401;27;45455;-77
2023/04/11 15:15:43;;;;;;;;;0.25;0.25;;;;;15.05;47.33;101091.44;5094997;27;45359;-76
2023/04/11 15:18:29;;;;;;;;;1.00;1.00;;;;;14.99;47.63;101093.59;5095195;27;45376;-77
2023/04/11 15:20:57;;;;;;;;;3.00;2.00;;;;;15.03;47.76;101079.84;5076377;27;47094;-77
2023/04/11 15:23:23;;;;;;;;;0.75;0.75;;;;;15.05;47.39;101069.84;5094726;27;45328;-76
2023/04/11 15:25:56;;;;;;;;;1.00;1.00;;;;;15.03;47.42;101043.88;5095028;27;45290;-78
2023/04/11 15:28:23;;;;;;;;;1.00;1.00;;;;;15.04;47.51;101056.41;5094965;27;46026;-77
2023/04/11 15:30:51;;;;;;;;;1.00;1.00;;;;;15.08;47.33;101047.16;5085474;27;46280;-78
2023/04/11 15:33:17;;;;;;;;;0.50;0.50;;;;;15.12;47.39;101051.44;5075054;28;45318;-76
2023/04/11 15:35:44;;;;;;;;;3.00;1.00;;;;;15.15;47.29;101048.53;5075117;28;45162;-77
2023/04/11 15:38:10;;;;;;;;;1.00;1.00;;;;;15.08;47.29;101031.81;5075076;27;45418;-79
2023/04/11 15:40:36;;;;;;;;;3.00;1.00;;;;;15.13;47.23;101045.06;5074668;28;45813;-76
2023/04/11 15:43:02;;;;;;;;;1.00;1.00;;;;;15.09;47.37;101035.41;5056579;28;45499;-77
2023/04/11 15:45:28;;;;;;;;;2.75;1.00;;;;;15.13;47.41;101042.38;5074997;28;45490;-78
2023/04/11 15:47:54;;;;;;;;;2.50;1.25;;;;;15.13;47.71;101034.25;5074705;28;45532;-77
2023/04/11 15:50:19;;;;;;;;;4.00;1.50;;;;;15.18;47.57;101042.06;5076211;27;45315;-77
2023/04/11 15:52:46;;;;;;;;;1.50;0.00;;;;;15.14;48.18;101041.41;5076339;27;45276;-76
2023/04/11 15:55:15;;;;;;;;;1.00;1.00;;;;;15.08;48.49;101017.44;5094982;27;45180;-77